Time;durP1;ratioP1;P1;durP2;ratioP2;P2;SDS_P1;SDS_P2;PMS_P1;PMS_P2;Temp;Humidity;BMP_temperature;BMP_pressure;BME280_temperature;BME280_humidity;BME280_pressure;Samples;Min_cycle;Max_cycle;Signal;HPM_P1;HPM_P2
2022/03/11 00:00:25;;;;;;;;;22.75;22.75;;;;;12.45;48.73;100533.81;5055794;28;45625;-59
2022/03/11 00:02:51;;;;;;;;;28.00;27.75;;;;;12.42;49.26;100529.53;5056095;28;45478;-60
2022/03/11 00:05:17;;;;;;;;;28.25;27.25;;;;;12.43;49.10;100530.38;5055990;28;45686;-60
2022/03/11 00:07:42;;;;;;;;;33.75;31.00;;;;;12.41;48.42;100519.88;5058070;27;45454;-60
2022/03/11 00:10:08;;;;;;;;;29.25;26.00;;;;;12.36;49.51;100517.47;5055981;28;45418;-59
2022/03/11 00:12:36;;;;;;;;;27.75;26.50;;;;;12.34;49.18;100515.81;5055650;28;45399;-60
2022/03/11 00:15:02;;;;;;;;;26.25;26.00;;;;;12.32;48.69;100510.59;5055175;28;45506;-59
2022/03/11 00:17:27;;;;;;;;;30.25;29.00;;;;;12.30;49.67;100508.94;5057253;28;46498;-59
2022/03/11 00:19:53;;;;;;;;;29.00;27.50;;;;;12.31;49.75;100511.53;5053641;28;45752;-59
2022/03/11 00:22:18;;;;;;;;;33.00;30.50;;;;;12.30;49.06;100506.31;5069339;28;45479;-59
2022/03/11 00:24:44;;;;;;;;;32.25;29.75;;;;;12.30;49.43;100506.31;5055614;28;45558;-59
2022/03/11 00:27:09;;;;;;;;;27.50;27.50;;;;;12.28;48.90;100503.75;5055763;28;46092;-60
2022/03/11 00:29:34;;;;;;;;;29.25;26.75;;;;;12.27;49.43;100509.94;5055637;28;45433;-60
2022/03/11 00:32:00;;;;;;;;;26.75;24.75;;;;;12.24;49.15;100511.88;5056009;28;45429;-59
2022/03/11 00:34:25;;;;;;;;;28.00;26.75;;;;;12.22;49.99;100509.28;5054879;28;45458;-59
2022/03/11 00:36:51;;;;;;;;;27.75;26.00;;;;;12.18;49.19;100499.81;5065907;28;46013;-59
2022/03/11 00:39:16;;;;;;;;;26.25;25.75;;;;;12.15;49.42;100503.44;5055498;28;45395;-59
2022/03/11 00:41:41;;;;;;;;;23.75;23.75;;;;;12.13;50.31;100496.50;5056050;28;45368;-59
2022/03/11 00:44:07;;;;;;;;;25.25;24.00;;;;;12.10;50.56;100494.00;5055586;28;45348;-59
2022/03/11 00:46:32;;;;;;;;;21.75;21.75;;;;;12.08;50.13;100494.06;5063259;28;46048;-59
2022/03/11 00:48:58;;;;;;;;;25.00;25.00;;;;;12.08;49.92;100488.78;5055014;27;45335;-59
2022/03/11 00:51:23;;;;;;;;;24.00;24.00;;;;;12.05;49.60;100491.56;5055387;28;45522;-59
2022/03/11 00:53:49;;;;;;;;;24.00;24.00;;;;;12.04;49.52;100489.88;5061882;28;45681;-59
2022/03/11 00:56:14;;;;;;;;;23.50;20.00;;;;;12.04;50.06;100478.47;5067323;28;46010;-59
2022/03/11 00:58:39;;;;;;;;;21.25;21.25;;;;;12.04;50.10;100470.56;5064004;28;45792;-59
2022/03/11 01:01:05;;;;;;;;;22.50;22.00;;;;;12.04;49.66;100463.50;5055405;28;45446;-59
2022/03/11 01:03:30;;;;;;;;;29.25;24.50;;;;;12.03;50.44;100463.56;5055334;28;45527;-59
2022/03/11 01:05:55;;;;;;;;;26.25;22.75;;;;;12.02;49.84;100460.06;5056241;28;46057;-59
2022/03/11 01:08:21;;;;;;;;;26.25;24.75;;;;;12.02;50.16;100462.72;5055076;28;45464;-59
2022/03/11 01:10:46;;;;;;;;;25.75;25.75;;;;;12.03;50.44;100458.28;5066202;28;45551;-60
2022/03/11 01:13:11;;;;;;;;;29.25;25.50;;;;;11.96;50.76;100456.88;5055127;28;45424;-60
2022/03/11 01:15:37;;;;;;;;;25.50;24.50;;;;;11.98;50.38;100453.22;5055720;28;46018;-59
2022/03/11 01:18:02;;;;;;;;;20.00;19.50;;;;;12.00;50.58;100463.69;5054766;28;45490;-60
2022/03/11 01:20:28;;;;;;;;;23.75;21.25;;;;;11.99;50.52;100454.94;5054910;28;45414;-60
2022/03/11 01:22:53;;;;;;;;;28.75;25.25;;;;;12.00;50.44;100458.44;5054923;28;45316;-59
2022/03/11 01:25:18;;;;;;;;;22.00;21.00;;;;;11.94;49.84;100451.66;5058692;28;45895;-59
2022/03/11 01:27:44;;;;;;;;;28.25;25.00;;;;;11.90;50.68;100455.31;5070593;28;45444;-60
2022/03/11 01:30:13;;;;;;;;;22.50;20.00;;;;;11.88;50.89;100447.50;5054845;28;45491;-60
2022/03/11 01:32:40;;;;;;;;;25.00;23.25;;;;;11.86;51.67;100453.75;5054856;28;45461;-60
2022/03/11 01:35:06;;;;;;;;;25.25;22.25;;;;;11.81;51.54;100446.00;5054723;28;46085;-60
2022/03/11 01:37:32;;;;;;;;;24.75;23.75;;;;;11.82;50.64;100444.22;5054671;28;45485;-59
2022/03/11 01:39:57;;;;;;;;;27.75;25.25;;;;;11.80;51.36;100443.47;5054704;28;45504;-59
2022/03/11 01:42:23;;;;;;;;;21.00;19.00;;;;;11.79;50.94;100436.44;5054804;28;45522;-59
2022/03/11 01:44:49;;;;;;;;;28.25;27.00;;;;;11.78;51.02;100429.47;5070789;28;46863;-60
2022/03/11 01:47:14;;;;;;;;;25.50;24.50;;;;;11.77;50.71;100430.38;5056700;28;45380;-60
2022/03/11 01:49:40;;;;;;;;;29.75;25.00;;;;;11.76;51.24;100420.78;5058196;28;45830;-59
2022/03/11 01:52:06;;;;;;;;;24.75;23.50;;;;;11.75;51.11;100421.72;5061104;28;45393;-60
2022/03/11 01:54:32;;;;;;;;;25.50;25.00;;;;;11.74;51.55;100415.59;5077147;28;45492;-60
2022/03/11 01:56:58;;;;;;;;;29.25;27.25;;;;;11.75;51.59;100416.44;5065830;28;45370;-60
2022/03/11 01:59:23;;;;;;;;;23.75;23.50;;;;;11.72;51.46;100417.44;5058151;28;45576;-59
2022/03/11 02:01:48;;;;;;;;;23.50;22.25;;;;;11.73;50.46;100414.72;5060532;28;45600;-60
2022/03/11 02:04:14;;;;;;;;;22.50;21.50;;;;;11.72;50.92;100415.66;5076369;27;46304;-60
2022/03/11 02:06:39;;;;;;;;;23.75;23.25;;;;;11.69;51.41;100414.94;5078103;27;45378;-59
2022/03/11 02:09:06;;;;;;;;;18.00;17.25;;;;;11.70;50.99;100420.13;5076102;28;45444;-60
2022/03/11 02:11:31;;;;;;;;;24.75;23.75;;;;;11.68;51.48;100416.69;5075293;27;45787;-59
2022/03/11 02:14:00;;;;;;;;;24.75;22.75;;;;;11.70;50.62;100417.47;5071353;27;45575;-60
2022/03/11 02:16:29;;;;;;;;;25.50;25.00;;;;;11.66;51.31;100418.56;5069347;27;45540;-59
2022/03/11 02:18:55;;;;;;;;;28.00;24.00;;;;;11.66;50.89;100413.28;5074651;28;45416;-60
2022/03/11 02:21:22;;;;;;;;;25.25;24.75;;;;;11.66;50.67;100415.91;5057304;28;45550;-60
2022/03/11 02:23:58;;;;;;;;;23.75;20.25;;;;;11.64;50.96;100414.28;5057278;28;46367;-61
2022/03/11 02:26:26;;;;;;;;;25.00;24.25;;;;;11.63;52.13;100415.19;5057395;28;45474;-60
2022/03/11 02:28:53;;;;;;;;;28.00;26.50;;;;;11.61;52.07;100410.00;5057423;28;45323;-60
2022/03/11 02:31:20;;;;;;;;;24.00;22.00;;;;;11.57;51.81;100408.41;5057013;28;45297;-60
2022/03/11 02:33:46;;;;;;;;;24.50;23.50;;;;;11.53;51.55;100396.28;5056726;28;45437;-60
2022/03/11 02:36:11;;;;;;;;;24.00;24.00;;;;;11.54;52.49;100408.53;5057775;28;45415;-59
2022/03/11 02:38:37;;;;;;;;;25.75;24.00;;;;;11.54;51.56;100395.34;5057288;28;45444;-59
2022/03/11 02:41:03;;;;;;;;;25.75;25.75;;;;;11.53;52.22;100395.44;5057051;28;45517;-62
2022/03/11 02:43:29;;;;;;;;;21.50;21.50;;;;;11.53;52.37;100390.19;5056669;28;45466;-60
2022/03/11 02:45:54;;;;;;;;;24.00;23.25;;;;;11.52;52.47;100388.44;5057167;27;45379;-63
2022/03/11 02:48:20;;;;;;;;;21.50;21.50;;;;;11.53;52.49;100384.91;5057384;28;45508;-59
2022/03/11 02:50:46;;;;;;;;;21.75;21.75;;;;;11.55;52.24;100385.66;5071358;27;45628;-59
2022/03/11 02:53:11;;;;;;;;;23.75;20.75;;;;;11.49;52.38;100384.16;5061866;28;46040;-59
2022/03/11 02:55:36;;;;;;;;;19.75;19.25;;;;;11.47;51.86;100384.25;5077288;28;45414;-59
2022/03/11 02:58:02;;;;;;;;;24.00;23.25;;;;;11.46;52.86;100381.66;5075218;28;45402;-59
2022/03/11 03:00:27;;;;;;;;;21.00;21.00;;;;;11.40;53.09;100372.25;5056590;28;45510;-60
2022/03/11 03:02:52;;;;;;;;;25.25;23.75;;;;;11.41;52.45;100371.31;5056580;28;45927;-59
2022/03/11 03:05:18;;;;;;;;;23.75;22.25;;;;;11.39;52.28;100372.31;5056492;28;45361;-59
2022/03/11 03:07:43;;;;;;;;;21.25;20.50;;;;;11.36;52.59;100368.03;5056965;28;45431;-60
2022/03/11 03:10:12;;;;;;;;;24.50;23.50;;;;;11.36;53.07;100364.53;5057037;28;45516;-59
2022/03/11 03:12:39;;;;;;;;;25.75;24.25;;;;;11.33;52.82;100359.41;5056344;27;46063;-59
2022/03/11 03:15:05;;;;;;;;;23.25;21.00;;;;;11.33;52.84;100357.63;5076780;27;45593;-59
2022/03/11 03:17:31;;;;;;;;;27.00;24.25;;;;;11.31;53.44;100346.31;5074970;28;45362;-60
2022/03/11 03:19:56;;;;;;;;;24.25;22.25;;;;;11.29;53.01;100332.34;5062582;28;45525;-59
2022/03/11 03:22:22;;;;;;;;;24.75;23.25;;;;;11.26;53.71;100332.50;5071397;28;45516;-59
2022/03/11 03:24:48;;;;;;;;;24.25;22.00;;;;;11.26;53.65;100333.34;5056627;28;45426;-59
2022/03/11 03:27:13;;;;;;;;;25.75;24.25;;;;;11.26;52.77;100330.72;5058507;28;45520;-59
2022/03/11 03:29:39;;;;;;;;;23.75;22.75;;;;;11.22;53.26;100326.47;5056663;28;45560;-59
2022/03/11 03:32:04;;;;;;;;;24.50;21.25;;;;;11.21;53.63;100330.06;5056071;28;46165;-59
2022/03/11 03:34:34;;;;;;;;;24.25;23.75;;;;;11.21;53.66;100340.59;5056349;28;45536;-59
2022/03/11 03:37:01;;;;;;;;;30.75;28.00;;;;;11.18;53.55;100340.72;5056817;28;45445;-60
2022/03/11 03:39:27;;;;;;;;;28.50;25.25;;;;;11.15;53.54;100332.94;5056455;28;45562;-61
2022/03/11 03:41:53;;;;;;;;;22.00;19.50;;;;;11.16;53.72;100331.16;5057368;28;46133;-60
2022/03/11 03:44:19;;;;;;;;;21.75;21.00;;;;;11.15;53.53;100342.59;5069111;28;45442;-59
2022/03/11 03:46:45;;;;;;;;;21.00;21.00;;;;;11.09;54.16;100330.56;5056508;28;45473;-61
2022/03/11 03:49:10;;;;;;;;;23.75;21.50;;;;;11.03;54.38;100330.81;5056210;28;45421;-61
2022/03/11 03:51:38;;;;;;;;;25.50;23.75;;;;;11.01;54.66;100330.88;5056194;28;46018;-61
2022/03/11 03:54:04;;;;;;;;;23.00;19.00;;;;;11.01;54.30;100335.28;5056226;28;45487;-60
2022/03/11 03:56:30;;;;;;;;;22.00;18.50;;;;;11.01;54.57;100324.75;5056058;28;45495;-60
2022/03/11 03:58:55;;;;;;;;;21.75;19.75;;;;;10.99;54.45;100324.84;5055952;28;45582;-59
2022/03/11 04:01:20;;;;;;;;;21.25;20.50;;;;;10.98;54.72;100317.00;5061823;28;45566;-60
2022/03/11 04:03:46;;;;;;;;;27.25;23.25;;;;;10.96;54.74;100318.81;5058779;28;45418;-60
2022/03/11 04:06:11;;;;;;;;;23.75;21.50;;;;;10.93;54.95;100321.59;5062629;27;45366;-60
2022/03/11 04:08:37;;;;;;;;;23.25;22.00;;;;;10.94;55.02;100316.28;5076102;27;45418;-60
2022/03/11 04:11:02;;;;;;;;;22.25;20.25;;;;;10.92;54.42;100310.22;5064464;27;45336;-59
2022/03/11 04:13:28;;;;;;;;;19.25;19.00;;;;;10.91;55.09;100311.13;5058897;28;45435;-59
2022/03/11 04:15:54;;;;;;;;;21.75;18.25;;;;;10.87;55.23;100303.44;5071011;28;45454;-60
2022/03/11 04:18:19;;;;;;;;;17.25;16.75;;;;;10.88;55.56;100302.50;5055931;28;45400;-60
2022/03/11 04:20:45;;;;;;;;;22.50;21.50;;;;;10.87;55.59;100300.78;5055882;28;45553;-59
2022/03/11 04:23:10;;;;;;;;;18.00;17.00;;;;;10.84;56.06;100293.88;5060803;28;45445;-60
2022/03/11 04:25:36;;;;;;;;;19.75;19.50;;;;;10.84;54.92;100286.84;5074235;28;45556;-60
2022/03/11 04:28:01;;;;;;;;;20.25;18.50;;;;;10.88;56.05;100305.13;5076204;28;45442;-60
2022/03/11 04:30:27;;;;;;;;;24.75;23.25;;;;;10.87;55.91;100303.44;5069833;28;45411;-60
2022/03/11 04:32:52;;;;;;;;;23.50;20.75;;;;;10.86;55.88;100299.09;5055145;27;45571;-60
2022/03/11 04:35:18;;;;;;;;;17.25;16.00;;;;;10.87;56.13;100303.44;5058180;27;45582;-61
2022/03/11 04:37:44;;;;;;;;;21.25;18.75;;;;;10.87;55.45;100298.16;5076052;28;45366;-60
2022/03/11 04:40:10;;;;;;;;;18.75;17.25;;;;;10.86;55.93;100299.09;5065523;28;45427;-61
2022/03/11 04:42:35;;;;;;;;;19.25;19.25;;;;;10.81;55.80;100302.75;5055586;28;45364;-61
2022/03/11 04:45:01;;;;;;;;;21.50;18.75;;;;;10.80;56.07;100310.69;5055339;28;45600;-60
2022/03/11 04:47:27;;;;;;;;;19.25;19.25;;;;;10.76;56.34;100309.13;5055760;28;45419;-62
2022/03/11 04:49:52;;;;;;;;;18.25;18.25;;;;;10.77;56.29;100310.81;5055118;28;46190;-60
2022/03/11 04:52:18;;;;;;;;;17.00;15.75;;;;;10.77;55.81;100311.72;5066504;28;45450;-64
2022/03/11 04:54:43;;;;;;;;;14.50;14.50;;;;;10.75;56.18;100303.03;5055496;28;45536;-60
2022/03/11 04:57:08;;;;;;;;;17.00;17.00;;;;;10.73;55.89;100304.00;5063306;27;45394;-60
2022/03/11 04:59:34;;;;;;;;;17.25;17.25;;;;;10.71;56.57;100301.41;5061678;28;45487;-60
2022/03/11 05:01:59;;;;;;;;;18.50;18.50;;;;;10.72;56.12;100299.63;5055057;28;45358;-60
2022/03/11 05:04:24;;;;;;;;;20.50;19.00;;;;;10.70;56.29;100298.88;5054976;28;45541;-59
2022/03/11 05:06:50;;;;;;;;;16.75;15.75;;;;;10.64;57.01;100292.09;5056171;28;45382;-66
2022/03/11 05:09:15;;;;;;;;;17.00;17.00;;;;;10.63;56.61;100292.13;5060631;28;45910;-60
2022/03/11 05:11:41;;;;;;;;;16.25;16.00;;;;;10.61;57.04;100289.56;5056056;28;45466;-60
2022/03/11 05:14:06;;;;;;;;;22.25;17.25;;;;;10.60;56.63;100285.22;5067069;28;45566;-60
2022/03/11 05:16:31;;;;;;;;;19.00;17.75;;;;;10.57;56.56;100275.69;5055086;28;45648;-60
2022/03/11 05:18:57;;;;;;;;;20.50;17.00;;;;;10.58;57.07;100268.63;5052886;28;46552;-60
2022/03/11 05:21:22;;;;;;;;;14.75;14.00;;;;;10.57;56.25;100273.06;5056512;28;45410;-60
2022/03/11 05:23:48;;;;;;;;;18.25;15.75;;;;;10.57;57.18;100273.06;5060238;27;45464;-60
2022/03/11 05:26:27;;;;;;;;;10.75;10.75;;;;;10.53;57.11;100274.13;5058895;28;45561;-60
2022/03/11 05:29:00;;;;;;;;;13.75;13.25;;;;;10.48;57.31;100273.44;5058376;28;45489;-60
2022/03/11 05:31:27;;;;;;;;;17.25;16.25;;;;;10.43;57.62;100264.03;5058198;28;45454;-60
2022/03/11 05:33:54;;;;;;;;;16.25;15.50;;;;;10.44;57.60;100263.09;5069956;28;45433;-60
2022/03/11 05:36:20;;;;;;;;;22.50;19.00;;;;;10.46;57.44;100256.00;5058909;28;45402;-60
2022/03/11 05:38:45;;;;;;;;;18.25;16.00;;;;;10.45;57.18;100252.53;5057072;28;45501;-60
2022/03/11 05:41:11;;;;;;;;;15.75;15.50;;;;;10.45;57.32;100251.66;5066232;28;45517;-60
2022/03/11 05:43:36;;;;;;;;;15.75;15.25;;;;;10.46;57.62;100256.00;5070479;28;45381;-60
2022/03/11 05:46:02;;;;;;;;;15.00;15.00;;;;;10.46;57.69;100253.38;5074213;28;45433;-60
2022/03/11 05:48:27;;;;;;;;;14.50;14.50;;;;;10.44;57.42;100257.84;5078246;27;45485;-59
2022/03/11 05:50:53;;;;;;;;;14.25;13.75;;;;;10.42;57.40;100254.41;5073063;28;45522;-60
2022/03/11 05:53:18;;;;;;;;;15.25;15.25;;;;;10.43;57.87;100251.72;5078513;28;45472;-61
2022/03/11 05:55:43;;;;;;;;;16.00;14.75;;;;;10.37;57.30;100242.31;5076576;27;45453;-65
2022/03/11 05:58:09;;;;;;;;;18.00;17.00;;;;;10.37;57.71;100242.31;5072053;27;45983;-61
2022/03/11 06:00:34;;;;;;;;;16.50;15.00;;;;;10.41;57.55;100248.31;5065143;28;45508;-62
2022/03/11 06:03:00;;;;;;;;;14.00;14.00;;;;;10.42;57.65;100254.41;5062098;27;45426;-60
2022/03/11 06:05:25;;;;;;;;;15.00;14.00;;;;;10.41;57.85;100252.72;5058572;28;45543;-60
2022/03/11 06:07:51;;;;;;;;;18.25;14.00;;;;;10.39;58.09;100250.97;5085166;27;45342;-60
2022/03/11 06:10:17;;;;;;;;;14.75;14.75;;;;;10.41;58.08;100260.59;5077778;27;46101;-59
2022/03/11 06:12:42;;;;;;;;;16.50;13.50;;;;;10.39;57.55;100260.66;5061805;27;45507;-60
2022/03/11 06:15:11;;;;;;;;;13.25;13.25;;;;;10.38;57.63;100256.31;5068682;28;45569;-60
2022/03/11 06:17:37;;;;;;;;;14.50;14.50;;;;;10.35;57.94;100256.44;5065340;28;45511;-61
2022/03/11 06:20:04;;;;;;;;;16.75;15.75;;;;;10.33;58.00;100253.84;5061233;28;45612;-63
2022/03/11 06:22:29;;;;;;;;;14.00;14.00;;;;;10.36;57.94;100252.88;5059917;28;45558;-62
2022/03/11 06:24:55;;;;;;;;;14.25;13.00;;;;;10.36;57.57;100248.47;5064365;27;45608;-62
2022/03/11 06:27:24;;;;;;;;;15.00;14.75;;;;;10.36;57.59;100248.47;5059474;27;45915;-62
2022/03/11 06:29:50;;;;;;;;;13.50;13.50;;;;;10.36;57.93;100245.00;5064101;28;45437;-61
2022/03/11 06:32:15;;;;;;;;;14.25;12.75;;;;;10.37;58.57;100242.31;5060525;28;45506;-61
2022/03/11 06:34:40;;;;;;;;;14.50;14.50;;;;;10.38;57.69;100241.38;5057876;28;45481;-61
2022/03/11 06:37:06;;;;;;;;;19.25;14.50;;;;;10.39;57.99;100237.84;5074465;28;45614;-61
2022/03/11 06:39:31;;;;;;;;;14.50;14.00;;;;;10.45;57.98;100243.75;5056917;27;45542;-63
2022/03/11 06:41:56;;;;;;;;;14.00;14.00;;;;;10.46;58.22;100248.97;5066742;28;45541;-60
2022/03/11 06:44:22;;;;;;;;;14.25;14.00;;;;;10.46;58.71;100237.59;5072940;27;45595;-62
2022/03/11 06:46:47;;;;;;;;;13.75;13.75;;;;;10.45;57.99;100236.75;5057075;28;45430;-60
2022/03/11 06:49:13;;;;;;;;;14.75;12.00;;;;;10.43;58.11;100237.72;5057346;27;45504;-61
2022/03/11 06:51:39;;;;;;;;;16.25;12.75;;;;;10.45;58.52;100235.88;5060515;28;45547;-61
2022/03/11 06:54:06;;;;;;;;;13.25;13.25;;;;;10.50;57.72;100229.50;5057127;28;45643;-64
2022/03/11 06:56:32;;;;;;;;;11.67;11.33;;;;;10.49;58.20;100226.97;5068801;28;46097;-62
2022/03/11 06:58:57;;;;;;;;;12.50;10.50;;;;;10.51;58.10;100236.50;5067281;28;45392;-61
2022/03/11 07:01:24;;;;;;;;;12.75;12.75;;;;;10.51;57.83;100228.63;5060513;28;45512;-62
2022/03/11 07:03:50;;;;;;;;;14.33;12.33;;;;;10.54;58.06;100225.00;5056070;28;45508;-62
2022/03/11 07:06:15;;;;;;;;;10.25;10.00;;;;;10.52;57.78;100227.69;5065892;28;45465;-62
2022/03/11 07:08:40;;;;;;;;;11.50;11.50;;;;;10.54;57.85;100222.38;5057022;28;45526;-61
2022/03/11 07:11:06;;;;;;;;;12.00;12.00;;;;;10.54;57.77;100222.38;5064866;27;45636;-62
2022/03/11 07:13:31;;;;;;;;;10.00;9.75;;;;;10.53;57.46;100234.66;5078175;27;45737;-62
2022/03/11 07:15:57;;;;;;;;;14.00;12.33;;;;;10.54;58.00;100228.47;5070091;28;46016;-61
2022/03/11 07:18:23;;;;;;;;;11.00;10.00;;;;;10.57;57.96;100233.59;5070508;27;45538;-62
2022/03/11 07:20:48;;;;;;;;;12.50;12.50;;;;;10.57;58.00;100220.47;5062530;27;45500;-62
2022/03/11 07:23:14;;;;;;;;;15.00;11.25;;;;;10.54;58.13;100214.47;5063799;28;45427;-61
2022/03/11 07:25:40;;;;;;;;;12.00;10.50;;;;;10.54;58.01;100211.84;5058298;27;47108;-62
2022/03/11 07:28:05;;;;;;;;;11.00;10.67;;;;;10.50;58.26;100208.47;5060889;27;45463;-62
2022/03/11 07:30:31;;;;;;;;;11.33;10.00;;;;;10.51;57.66;100207.56;5064214;28;45484;-61
2022/03/11 07:32:56;;;;;;;;;13.00;9.25;;;;;10.58;58.09;100210.78;5066568;27;45529;-62
2022/03/11 07:35:22;;;;;;;;;7.33;4.33;;;;;10.57;58.23;100206.47;5066461;27;45960;-62
2022/03/11 07:37:47;;;;;;;;;10.67;9.00;;;;;10.61;58.38;100197.50;5060178;28;45429;-62
2022/03/11 07:40:13;;;;;;;;;13.00;11.75;;;;;10.64;57.83;100207.03;5060058;28;45369;-62
2022/03/11 07:42:43;;;;;;;;;9.00;9.00;;;;;10.63;58.22;100197.47;5057154;28;45396;-62
2022/03/11 07:45:18;;;;;;;;;11.00;11.00;;;;;10.66;57.45;100197.31;5056722;28;46051;-62
2022/03/11 07:47:44;;;;;;;;;9.00;9.00;;;;;10.68;57.85;100195.50;5060722;27;45378;-61
2022/03/11 07:50:11;;;;;;;;;6.25;5.25;;;;;10.68;57.80;100195.50;5061905;28;45597;-62
2022/03/11 07:52:38;;;;;;;;;10.50;9.25;;;;;10.72;58.21;100191.78;5063933;28;45529;-61
2022/03/11 07:55:06;;;;;;;;;8.00;8.00;;;;;10.74;57.99;100189.97;5066578;28;46481;-62
2022/03/11 07:57:32;;;;;;;;;11.00;11.00;;;;;10.75;57.71;100182.03;5058373;28;45643;-58
2022/03/11 08:00:00;;;;;;;;;10.00;10.00;;;;;10.78;57.79;100173.16;5057676;28;45416;-58
2022/03/11 08:02:27;;;;;;;;;14.00;11.00;;;;;10.82;57.52;100174.72;5071581;28;45515;-58
2022/03/11 08:04:52;;;;;;;;;14.00;13.75;;;;;10.78;57.69;100176.63;5075856;28;45373;-61
2022/03/11 08:07:18;;;;;;;;;12.00;10.67;;;;;10.87;57.58;100174.50;5074630;28;45721;-63
2022/03/11 08:09:43;;;;;;;;;12.67;11.00;;;;;10.95;57.46;100178.50;5063507;28;45343;-63
2022/03/11 08:12:09;;;;;;;;;9.00;9.00;;;;;11.00;57.73;100173.06;5055748;28;45592;-61
2022/03/11 08:14:35;;;;;;;;;24.75;22.25;;;;;11.06;57.19;100175.41;5059318;28;45370;-61
2022/03/11 08:17:00;;;;;;;;;63.50;52.25;;;;;11.12;57.62;100171.66;5063089;28;45518;-58
2022/03/11 08:19:26;;;;;;;;;36.00;32.50;;;;;11.21;57.65;100169.47;5055867;28;45420;-62
2022/03/11 08:21:54;;;;;;;;;9.00;8.67;;;;;11.28;56.33;100173.56;5067727;28;45468;-63
2022/03/11 08:24:20;;;;;;;;;23.00;20.50;;;;;11.34;56.53;100166.28;5069745;28;45452;-62
2022/03/11 08:26:47;;;;;;;;;12.67;10.67;;;;;11.38;56.17;100171.34;5063118;28;45595;-59
2022/03/11 08:29:12;;;;;;;;;9.67;8.00;;;;;11.38;56.75;100159.97;5064658;28;45407;-59
2022/03/11 08:31:38;;;;;;;;;9.67;9.67;;;;;11.38;56.60;100154.69;5059300;28;45560;-59
2022/03/11 08:34:04;;;;;;;;;7.33;7.33;;;;;11.43;56.74;100145.66;5074632;27;46471;-60
2022/03/11 08:36:29;;;;;;;;;6.33;6.33;;;;;11.47;55.48;100143.72;5068278;27;45526;-60
2022/03/11 08:38:54;;;;;;;;;6.67;6.67;;;;;11.52;56.26;100140.88;5055156;28;45399;-60
2022/03/11 08:41:22;;;;;;;;;8.00;6.00;;;;;11.53;55.71;100142.63;5055334;28;45358;-60
2022/03/11 08:43:49;;;;;;;;;8.00;7.00;;;;;11.54;55.54;100142.53;5055034;28;45930;-60
2022/03/11 08:46:14;;;;;;;;;8.00;8.00;;;;;11.57;55.03;100139.75;5055421;28;45456;-60
2022/03/11 08:48:41;;;;;;;;;7.67;6.67;;;;;11.60;55.33;100136.13;5055313;28;45441;-60
2022/03/11 08:51:06;;;;;;;;;4.00;4.00;;;;;11.61;54.83;100130.78;5056045;28;45394;-61
2022/03/11 08:53:32;;;;;;;;;4.33;4.33;;;;;11.67;55.37;100135.75;5055410;28;46120;-61
2022/03/11 08:55:57;;;;;;;;;4.33;4.33;;;;;11.67;55.67;100141.03;5056331;28;45494;-61
2022/03/11 08:58:22;;;;;;;;;6.33;4.67;;;;;11.73;55.02;100135.47;5059133;28;45368;-60
2022/03/11 09:00:48;;;;;;;;;6.33;6.33;;;;;11.75;54.45;100143.31;5058129;28;45430;-60
2022/03/11 09:03:13;;;;;;;;;6.33;6.33;;;;;11.81;55.28;100136.88;5058744;28;45455;-60
2022/03/11 09:05:39;;;;;;;;;5.00;5.00;;;;;11.86;55.02;100134.91;5058828;28;45381;-60
2022/03/11 09:08:07;;;;;;;;;3.00;3.00;;;;;11.90;54.82;100136.47;5059565;28;45438;-61
2022/03/11 09:10:33;;;;;;;;;4.33;4.00;;;;;11.88;54.35;100126.00;5058641;28;45548;-61
2022/03/11 09:12:58;;;;;;;;;4.00;4.00;;;;;11.87;54.21;100123.44;5058624;28;46300;-61
2022/03/11 09:15:24;;;;;;;;;6.00;4.33;;;;;11.88;53.87;100115.47;5058367;28;45444;-63
2022/03/11 09:17:50;;;;;;;;;6.33;4.67;;;;;11.94;53.92;100117.81;5058554;28;45423;-63
2022/03/11 09:20:15;;;;;;;;;9.00;4.33;;;;;12.02;54.50;100121.84;5058690;28;45418;-61
2022/03/11 09:22:41;;;;;;;;;9.00;9.00;;;;;12.06;54.75;100126.03;5058385;28;46573;-61
2022/03/11 09:25:08;;;;;;;;;6.00;4.33;;;;;12.13;53.58;100116.91;5059266;28;45393;-61
2022/03/11 09:27:35;;;;;;;;;5.00;3.67;;;;;12.16;54.26;100114.97;5078485;28;45386;-61
2022/03/11 09:30:00;;;;;;;;;3.00;3.00;;;;;12.25;53.32;100118.94;5078762;28;45478;-61
2022/03/11 09:32:26;;;;;;;;;2.33;2.33;;;;;12.29;52.65;100117.00;5078531;28;45423;-61
2022/03/11 09:34:52;;;;;;;;;3.00;3.00;;;;;12.32;52.98;100125.59;5078646;27;45410;-61
2022/03/11 09:37:18;;;;;;;;;6.33;6.33;;;;;12.34;52.83;100130.81;5078691;27;45485;-61
2022/03/11 09:39:43;;;;;;;;;4.00;3.00;;;;;12.37;52.87;100114.81;5078400;28;45617;-61
2022/03/11 09:42:09;;;;;;;;;3.00;3.00;;;;;12.44;52.64;100112.72;5077671;27;45403;-61
2022/03/11 09:44:35;;;;;;;;;3.00;3.00;;;;;12.49;52.81;100111.56;5078333;28;45418;-61
2022/03/11 09:47:00;;;;;;;;;3.00;2.33;;;;;12.53;53.04;100107.84;5078763;28;45457;-61
2022/03/11 09:49:26;;;;;;;;;14.33;11.00;;;;;12.51;52.97;100108.84;5078263;28;45366;-60
2022/03/11 09:51:52;;;;;;;;;3.00;3.00;;;;;12.54;52.81;100112.16;5078265;27;45499;-60
2022/03/11 09:54:17;;;;;;;;;4.00;4.00;;;;;12.56;51.92;100098.91;5078381;28;45374;-62
2022/03/11 09:56:44;;;;;;;;;2.67;2.67;;;;;12.59;52.03;100104.88;5078720;28;45389;-61
2022/03/11 09:59:11;;;;;;;;;3.67;3.67;;;;;12.64;52.63;100106.44;5077667;28;45541;-61
2022/03/11 10:01:40;;;;;;;;;5.00;4.00;;;;;12.68;52.45;100097.41;5076657;28;48228;-61
2022/03/11 10:04:06;;;;;;;;;5.00;4.00;;;;;12.69;51.95;100091.22;5077991;27;45429;-61
2022/03/11 10:06:43;;;;;;;;;3.33;3.33;;;;;12.68;52.44;100081.59;5076687;27;45441;-61
2022/03/11 10:09:17;;;;;;;;;2.67;2.00;;;;;12.69;52.20;100055.13;5078008;27;45253;-63
2022/03/11 10:11:57;;;;;;;;;2.00;2.00;;;;;12.65;53.32;100065.91;5077478;27;45484;-61
2022/03/11 10:14:37;;;;;;;;;4.00;3.00;;;;;12.66;53.80;100083.47;5077999;28;45568;-61
2022/03/11 10:17:18;;;;;;;;;3.33;3.33;;;;;12.75;53.64;100067.16;5057800;28;45536;-61
2022/03/11 10:20:03;;;;;;;;;11.00;10.67;;;;;12.81;53.58;100072.97;5057413;28;45406;-61
2022/03/11 10:22:31;;;;;;;;;5.00;4.00;;;;;12.88;53.44;100078.75;5056111;28;45375;-61
2022/03/11 10:25:00;;;;;;;;;4.67;4.67;;;;;13.04;53.94;100079.63;5057413;28;45431;-61
2022/03/11 10:27:26;;;;;;;;;3.00;3.00;;;;;13.17;53.87;100068.41;5076258;28;45440;-61
2022/03/11 10:29:55;;;;;;;;;3.00;2.33;;;;;13.22;53.15;100075.16;5077802;28;45611;-61
2022/03/11 10:32:24;;;;;;;;;34.33;28.33;;;;;13.22;52.76;100069.88;5076627;28;46192;-61
2022/03/11 10:34:50;;;;;;;;;2.67;2.67;;;;;13.20;53.18;100062.97;5077689;28;45426;-61
2022/03/11 10:37:16;;;;;;;;;3.33;3.33;;;;;13.16;52.60;100064.91;5077778;28;45474;-61
2022/03/11 10:39:44;;;;;;;;;4.00;4.00;;;;;13.15;52.81;100086.97;5077861;28;45454;-61
2022/03/11 10:42:12;;;;;;;;;3.67;3.00;;;;;13.12;52.88;100105.63;5077507;28;46300;-62
2022/03/11 10:44:39;;;;;;;;;4.00;4.00;;;;;13.09;53.29;100091.75;5077954;28;45438;-61
2022/03/11 10:47:21;;;;;;;;;5.00;4.00;;;;;13.07;52.76;100094.47;5077444;27;45386;-61
2022/03/11 10:49:54;;;;;;;;;5.67;5.00;;;;;13.05;53.95;100067.28;5075473;28;45563;-61
2022/03/11 10:52:41;;;;;;;;;9.67;8.67;;;;;13.03;54.13;100056.81;5077424;28;45417;-61
2022/03/11 10:55:22;;;;;;;;;6.67;5.00;;;;;13.03;55.36;100072.66;5077575;27;45386;-61
2022/03/11 10:57:51;;;;;;;;;5.00;4.00;;;;;13.05;54.87;100072.56;5077538;28;45422;-61
2022/03/11 11:00:25;;;;;;;;;6.00;6.00;;;;;13.04;55.45;100097.28;5077337;27;45370;-61
2022/03/11 11:02:53;;;;;;;;;7.33;7.33;;;;;13.00;55.33;100107.16;5057995;28;46313;-61
2022/03/11 11:05:19;;;;;;;;;5.00;5.00;;;;;13.02;54.54;100114.97;5057122;28;45449;-61
2022/03/11 11:07:45;;;;;;;;;6.00;6.00;;;;;13.08;54.63;100105.88;5056956;27;45456;-61
2022/03/11 11:10:16;;;;;;;;;4.33;4.33;;;;;13.06;55.00;100095.41;5062679;27;45700;-61